Terminal Aerodrome Forecast
Issued by NWS Los Angeles, CA

Home | Current Version | Previous Version | Text Only | Print | Product List | Glossary On
Versions: 1 2 3 4 5 6 7 8 9 10 11 12 13 14 15 16 17 18 19 20 21 22 23 24 25 26
000
FTUS46 KLOX 311733
TAFSMX
TAF
KSMX 311733Z 3118/0118 30009KT P6SM SKC
     FM312100 31015G22KT P6SM SKC
     FM010300 31006KT P6SM SKC
     FM010600 VRB03KT 4SM BR OVC003
     FM011100 VRB03KT 1/2SM FG OVC001
     FM011600 VRB03KT 2SM BR OVC003=

USA.gov is the U.S. government's official web portal to all federal, state and local government web resources and services.